sensor_id;sensor_type;location;lat;lon;timestamp;P1;durP1;ratioP1;P2;durP2;ratioP2
24147;SDS011;12309;51.450;-2.624;2023-06-26T00:02:12;14.00;;;2.35;;
24147;SDS011;12309;51.450;-2.624;2023-06-26T00:04:38;10.25;;;1.80;;
24147;SDS011;12309;51.450;-2.624;2023-06-26T00:07:04;9.02;;;2.10;;
24147;SDS011;12309;51.450;-2.624;2023-06-26T00:09:30;9.35;;;1.80;;
24147;SDS011;12309;51.450;-2.624;2023-06-26T00:11:55;12.50;;;2.08;;
24147;SDS011;12309;51.450;-2.624;2023-06-26T00:14:21;11.98;;;2.10;;
24147;SDS011;12309;51.450;-2.624;2023-06-26T00:16:47;11.68;;;2.20;;
24147;SDS011;12309;51.450;-2.624;2023-06-26T00:19:16;15.80;;;2.30;;
24147;SDS011;12309;51.450;-2.624;2023-06-26T00:21:41;13.45;;;2.22;;
24147;SDS011;12309;51.450;-2.624;2023-06-26T00:24:11;10.40;;;1.88;;
24147;SDS011;12309;51.450;-2.624;2023-06-26T00:26:37;13.75;;;1.88;;
24147;SDS011;12309;51.450;-2.624;2023-06-26T00:29:03;12.18;;;1.90;;
24147;SDS011;12309;51.450;-2.624;2023-06-26T00:31:29;12.73;;;1.95;;
24147;SDS011;12309;51.450;-2.624;2023-06-26T00:33:55;11.93;;;1.70;;
24147;SDS011;12309;51.450;-2.624;2023-06-26T00:36:20;12.10;;;2.17;;
24147;SDS011;12309;51.450;-2.624;2023-06-26T00:38:47;11.60;;;2.10;;
24147;SDS011;12309;51.450;-2.624;2023-06-26T00:41:13;13.98;;;2.10;;
24147;SDS011;12309;51.450;-2.624;2023-06-26T00:43:39;10.15;;;1.83;;
24147;SDS011;12309;51.450;-2.624;2023-06-26T00:46:06;9.90;;;2.20;;
24147;SDS011;12309;51.450;-2.624;2023-06-26T00:48:34;12.10;;;2.15;;
24147;SDS011;12309;51.450;-2.624;2023-06-26T00:51:00;12.82;;;1.77;;
24147;SDS011;12309;51.450;-2.624;2023-06-26T00:53:26;14.52;;;3.33;;
24147;SDS011;12309;51.450;-2.624;2023-06-26T00:55:53;15.15;;;1.90;;
24147;SDS011;12309;51.450;-2.624;2023-06-26T00:58:19;13.25;;;2.55;;
24147;SDS011;12309;51.450;-2.624;2023-06-26T01:00:47;10.52;;;2.08;;
24147;SDS011;12309;51.450;-2.624;2023-06-26T01:03:14;16.83;;;1.92;;
24147;SDS011;12309;51.450;-2.624;2023-06-26T01:05:40;19.10;;;2.40;;
24147;SDS011;12309;51.450;-2.624;2023-06-26T01:08:06;12.45;;;2.10;;
24147;SDS011;12309;51.450;-2.624;2023-06-26T01:10:33;11.80;;;1.98;;
24147;SDS011;12309;51.450;-2.624;2023-06-26T01:12:59;15.55;;;2.28;;
24147;SDS011;12309;51.450;-2.624;2023-06-26T01:15:25;17.08;;;2.20;;
24147;SDS011;12309;51.450;-2.624;2023-06-26T01:17:50;11.20;;;2.13;;
24147;SDS011;12309;51.450;-2.624;2023-06-26T01:20:17;13.80;;;2.53;;
24147;SDS011;12309;51.450;-2.624;2023-06-26T01:22:56;19.48;;;2.70;;
24147;SDS011;12309;51.450;-2.624;2023-06-26T01:28:03;17.20;;;2.75;;
24147;SDS011;12309;51.450;-2.624;2023-06-26T01:30:30;14.55;;;2.10;;
24147;SDS011;12309;51.450;-2.624;2023-06-26T01:32:58;13.65;;;2.53;;
24147;SDS011;12309;51.450;-2.624;2023-06-26T01:35:25;16.15;;;2.72;;
24147;SDS011;12309;51.450;-2.624;2023-06-26T01:37:52;14.23;;;2.30;;
24147;SDS011;12309;51.450;-2.624;2023-06-26T01:40:18;16.67;;;2.50;;
24147;SDS011;12309;51.450;-2.624;2023-06-26T01:42:44;19.88;;;3.10;;
24147;SDS011;12309;51.450;-2.624;2023-06-26T01:45:13;15.80;;;2.28;;
24147;SDS011;12309;51.450;-2.624;2023-06-26T01:47:49;16.55;;;3.08;;
24147;SDS011;12309;51.450;-2.624;2023-06-26T01:50:17;19.17;;;2.85;;
24147;SDS011;12309;51.450;-2.624;2023-06-26T01:55:31;18.20;;;2.40;;
24147;SDS011;12309;51.450;-2.624;2023-06-26T01:58:11;15.43;;;2.28;;
24147;SDS011;12309;51.450;-2.624;2023-06-26T02:00:39;18.42;;;2.95;;
24147;SDS011;12309;51.450;-2.624;2023-06-26T02:03:06;15.75;;;2.15;;
24147;SDS011;12309;51.450;-2.624;2023-06-26T02:05:31;19.98;;;3.03;;
24147;SDS011;12309;51.450;-2.624;2023-06-26T02:07:58;11.93;;;2.40;;
24147;SDS011;12309;51.450;-2.624;2023-06-26T02:10:23;18.42;;;3.03;;
24147;SDS011;12309;51.450;-2.624;2023-06-26T02:12:49;19.33;;;2.72;;
24147;SDS011;12309;51.450;-2.624;2023-06-26T02:15:15;20.92;;;2.67;;
24147;SDS011;12309;51.450;-2.624;2023-06-26T02:17:41;17.05;;;2.58;;
24147;SDS011;12309;51.450;-2.624;2023-06-26T02:20:06;23.75;;;2.60;;
24147;SDS011;12309;51.450;-2.624;2023-06-26T02:22:34;14.45;;;2.25;;
24147;SDS011;12309;51.450;-2.624;2023-06-26T02:25:00;17.65;;;2.47;;
24147;SDS011;12309;51.450;-2.624;2023-06-26T02:27:25;18.27;;;2.92;;
24147;SDS011;12309;51.450;-2.624;2023-06-26T02:29:51;18.17;;;2.72;;
24147;SDS011;12309;51.450;-2.624;2023-06-26T02:32:16;21.98;;;2.83;;
24147;SDS011;12309;51.450;-2.624;2023-06-26T02:34:42;14.38;;;2.15;;
24147;SDS011;12309;51.450;-2.624;2023-06-26T02:37:07;15.80;;;2.50;;
24147;SDS011;12309;51.450;-2.624;2023-06-26T02:39:35;24.80;;;2.95;;
24147;SDS011;12309;51.450;-2.624;2023-06-26T02:42:01;12.88;;;2.22;;
24147;SDS011;12309;51.450;-2.624;2023-06-26T02:44:27;17.85;;;3.17;;
24147;SDS011;12309;51.450;-2.624;2023-06-26T02:46:52;29.63;;;3.35;;
24147;SDS011;12309;51.450;-2.624;2023-06-26T02:49:18;17.65;;;2.50;;
24147;SDS011;12309;51.450;-2.624;2023-06-26T02:51:43;21.00;;;2.78;;
24147;SDS011;12309;51.450;-2.624;2023-06-26T02:54:09;15.93;;;2.45;;
24147;SDS011;12309;51.450;-2.624;2023-06-26T02:56:35;20.40;;;3.10;;
24147;SDS011;12309;51.450;-2.624;2023-06-26T02:59:00;18.77;;;2.58;;
24147;SDS011;12309;51.450;-2.624;2023-06-26T03:01:26;19.60;;;2.70;;
24147;SDS011;12309;51.450;-2.624;2023-06-26T03:03:51;18.42;;;3.33;;
24147;SDS011;12309;51.450;-2.624;2023-06-26T03:06:17;19.98;;;3.10;;
24147;SDS011;12309;51.450;-2.624;2023-06-26T03:08:43;18.10;;;3.30;;
24147;SDS011;12309;51.450;-2.624;2023-06-26T03:11:09;13.88;;;2.63;;
24147;SDS011;12309;51.450;-2.624;2023-06-26T03:13:35;14.07;;;2.78;;
24147;SDS011;12309;51.450;-2.624;2023-06-26T03:16:02;11.48;;;2.15;;
24147;SDS011;12309;51.450;-2.624;2023-06-26T03:18:28;14.10;;;2.90;;
24147;SDS011;12309;51.450;-2.624;2023-06-26T03:20:55;15.73;;;2.25;;
24147;SDS011;12309;51.450;-2.624;2023-06-26T03:23:22;13.45;;;2.40;;
24147;SDS011;12309;51.450;-2.624;2023-06-26T03:25:48;16.35;;;3.35;;
24147;SDS011;12309;51.450;-2.624;2023-06-26T03:28:14;11.82;;;1.80;;
24147;SDS011;12309;51.450;-2.624;2023-06-26T03:30:40;15.95;;;2.55;;
24147;SDS011;12309;51.450;-2.624;2023-06-26T03:33:06;9.35;;;2.20;;
24147;SDS011;12309;51.450;-2.624;2023-06-26T03:35:31;12.70;;;2.33;;
24147;SDS011;12309;51.450;-2.624;2023-06-26T03:37:57;12.48;;;1.83;;
24147;SDS011;12309;51.450;-2.624;2023-06-26T03:40:23;12.25;;;2.28;;
24147;SDS011;12309;51.450;-2.624;2023-06-26T03:42:49;10.65;;;1.83;;
24147;SDS011;12309;51.450;-2.624;2023-06-26T03:45:15;12.00;;;2.05;;
24147;SDS011;12309;51.450;-2.624;2023-06-26T03:47:40;12.02;;;2.08;;
24147;SDS011;12309;51.450;-2.624;2023-06-26T03:50:06;9.75;;;2.00;;
24147;SDS011;12309;51.450;-2.624;2023-06-26T03:52:32;11.05;;;1.83;;
24147;SDS011;12309;51.450;-2.624;2023-06-26T03:54:57;8.55;;;1.98;;
24147;SDS011;12309;51.450;-2.624;2023-06-26T03:57:23;17.25;;;2.33;;
24147;SDS011;12309;51.450;-2.624;2023-06-26T03:59:50;15.43;;;2.67;;
24147;SDS011;12309;51.450;-2.624;2023-06-26T04:02:15;11.40;;;2.10;;
24147;SDS011;12309;51.450;-2.624;2023-06-26T04:04:41;14.02;;;2.67;;
24147;SDS011;12309;51.450;-2.624;2023-06-26T04:07:07;13.43;;;2.05;;
24147;SDS011;12309;51.450;-2.624;2023-06-26T04:09:32;11.45;;;1.83;;
24147;SDS011;12309;51.450;-2.624;2023-06-26T04:11:58;11.65;;;2.10;;
24147;SDS011;12309;51.450;-2.624;2023-06-26T04:14:23;7.03;;;2.10;;
24147;SDS011;12309;51.450;-2.624;2023-06-26T04:16:49;13.35;;;2.15;;
24147;SDS011;12309;51.450;-2.624;2023-06-26T04:19:14;17.02;;;2.30;;
24147;SDS011;12309;51.450;-2.624;2023-06-26T04:21:40;17.52;;;2.38;;
24147;SDS011;12309;51.450;-2.624;2023-06-26T04:24:06;11.55;;;2.17;;
24147;SDS011;12309;51.450;-2.624;2023-06-26T04:26:32;13.98;;;2.42;;
24147;SDS011;12309;51.450;-2.624;2023-06-26T04:28:57;9.90;;;1.83;;
24147;SDS011;12309;51.450;-2.624;2023-06-26T04:31:24;11.68;;;1.80;;
24147;SDS011;12309;51.450;-2.624;2023-06-26T04:33:49;12.65;;;2.00;;
24147;SDS011;12309;51.450;-2.624;2023-06-26T04:36:16;17.45;;;2.17;;
24147;SDS011;12309;51.450;-2.624;2023-06-26T04:38:42;14.52;;;2.40;;
24147;SDS011;12309;51.450;-2.624;2023-06-26T04:41:08;14.27;;;2.50;;
24147;SDS011;12309;51.450;-2.624;2023-06-26T04:43:34;14.93;;;2.30;;
24147;SDS011;12309;51.450;-2.624;2023-06-26T04:45:59;14.88;;;2.70;;
24147;SDS011;12309;51.450;-2.624;2023-06-26T04:48:25;13.73;;;2.13;;
24147;SDS011;12309;51.450;-2.624;2023-06-26T04:50:54;18.92;;;2.35;;
24147;SDS011;12309;51.450;-2.624;2023-06-26T04:53:21;13.25;;;2.60;;
24147;SDS011;12309;51.450;-2.624;2023-06-26T04:55:48;12.45;;;2.17;;
24147;SDS011;12309;51.450;-2.624;2023-06-26T04:58:14;16.08;;;2.60;;
24147;SDS011;12309;51.450;-2.624;2023-06-26T05:00:40;12.48;;;1.80;;
24147;SDS011;12309;51.450;-2.624;2023-06-26T05:03:08;20.83;;;3.30;;
24147;SDS011;12309;51.450;-2.624;2023-06-26T05:05:37;14.02;;;2.13;;
24147;SDS011;12309;51.450;-2.624;2023-06-26T05:10:58;13.68;;;2.17;;
24147;SDS011;12309;51.450;-2.624;2023-06-26T05:13:24;11.77;;;2.53;;
24147;SDS011;12309;51.450;-2.624;2023-06-26T05:15:51;8.88;;;1.92;;
24147;SDS011;12309;51.450;-2.624;2023-06-26T05:18:17;10.55;;;1.70;;
24147;SDS011;12309;51.450;-2.624;2023-06-26T05:20:43;10.65;;;1.65;;
24147;SDS011;12309;51.450;-2.624;2023-06-26T05:23:09;10.85;;;2.45;;
24147;SDS011;12309;51.450;-2.624;2023-06-26T05:25:36;15.10;;;1.88;;
24147;SDS011;12309;51.450;-2.624;2023-06-26T05:28:03;12.77;;;2.60;;
24147;SDS011;12309;51.450;-2.624;2023-06-26T05:30:30;12.20;;;2.22;;
24147;SDS011;12309;51.450;-2.624;2023-06-26T05:32:59;15.75;;;2.20;;
24147;SDS011;12309;51.450;-2.624;2023-06-26T05:35:27;9.40;;;1.88;;
24147;SDS011;12309;51.450;-2.624;2023-06-26T05:37:55;11.63;;;2.10;;
24147;SDS011;12309;51.450;-2.624;2023-06-26T05:40:21;11.48;;;1.70;;
24147;SDS011;12309;51.450;-2.624;2023-06-26T05:42:47;13.30;;;1.98;;
24147;SDS011;12309;51.450;-2.624;2023-06-26T05:45:14;8.10;;;1.67;;
24147;SDS011;12309;51.450;-2.624;2023-06-26T05:47:40;11.48;;;1.65;;
24147;SDS011;12309;51.450;-2.624;2023-06-26T05:50:06;11.88;;;2.13;;
24147;SDS011;12309;51.450;-2.624;2023-06-26T05:52:33;8.85;;;1.88;;
24147;SDS011;12309;51.450;-2.624;2023-06-26T05:55:00;7.00;;;1.80;;
24147;SDS011;12309;51.450;-2.624;2023-06-26T05:57:26;8.60;;;1.50;;
24147;SDS011;12309;51.450;-2.624;2023-06-26T05:59:53;13.35;;;1.85;;
24147;SDS011;12309;51.450;-2.624;2023-06-26T06:02:19;9.63;;;1.80;;
24147;SDS011;12309;51.450;-2.624;2023-06-26T06:04:45;13.93;;;2.22;;
24147;SDS011;12309;51.450;-2.624;2023-06-26T06:07:11;12.13;;;1.90;;
24147;SDS011;12309;51.450;-2.624;2023-06-26T06:09:37;12.20;;;3.00;;
24147;SDS011;12309;51.450;-2.624;2023-06-26T06:12:04;10.52;;;1.73;;
24147;SDS011;12309;51.450;-2.624;2023-06-26T06:14:31;13.50;;;2.05;;
24147;SDS011;12309;51.450;-2.624;2023-06-26T06:16:57;12.95;;;2.17;;
24147;SDS011;12309;51.450;-2.624;2023-06-26T06:19:23;8.10;;;1.92;;
24147;SDS011;12309;51.450;-2.624;2023-06-26T06:21:48;10.32;;;1.95;;
24147;SDS011;12309;51.450;-2.624;2023-06-26T06:24:14;9.80;;;1.73;;
24147;SDS011;12309;51.450;-2.624;2023-06-26T06:26:39;8.40;;;1.90;;
24147;SDS011;12309;51.450;-2.624;2023-06-26T06:29:05;11.93;;;2.20;;
24147;SDS011;12309;51.450;-2.624;2023-06-26T06:31:31;9.90;;;1.85;;
24147;SDS011;12309;51.450;-2.624;2023-06-26T06:33:57;9.23;;;1.75;;
24147;SDS011;12309;51.450;-2.624;2023-06-26T06:36:22;10.40;;;2.10;;
24147;SDS011;12309;51.450;-2.624;2023-06-26T06:38:48;9.93;;;2.05;;
24147;SDS011;12309;51.450;-2.624;2023-06-26T06:41:14;11.55;;;1.88;;
24147;SDS011;12309;51.450;-2.624;2023-06-26T06:43:40;10.88;;;1.40;;
24147;SDS011;12309;51.450;-2.624;2023-06-26T06:46:06;13.40;;;1.92;;
24147;SDS011;12309;51.450;-2.624;2023-06-26T06:48:31;10.75;;;1.75;;
24147;SDS011;12309;51.450;-2.624;2023-06-26T06:50:57;10.00;;;1.73;;
24147;SDS011;12309;51.450;-2.624;2023-06-26T06:53:23;8.27;;;1.83;;
24147;SDS011;12309;51.450;-2.624;2023-06-26T06:55:49;10.52;;;1.70;;
24147;SDS011;12309;51.450;-2.624;2023-06-26T06:58:14;6.63;;;1.63;;
24147;SDS011;12309;51.450;-2.624;2023-06-26T07:00:47;10.10;;;1.65;;
24147;SDS011;12309;51.450;-2.624;2023-06-26T07:03:13;12.02;;;1.90;;
24147;SDS011;12309;51.450;-2.624;2023-06-26T07:05:41;8.43;;;1.70;;
24147;SDS011;12309;51.450;-2.624;2023-06-26T07:08:07;12.40;;;2.05;;
24147;SDS011;12309;51.450;-2.624;2023-06-26T07:10:32;6.15;;;1.75;;
24147;SDS011;12309;51.450;-2.624;2023-06-26T07:12:58;11.10;;;1.60;;
24147;SDS011;12309;51.450;-2.624;2023-06-26T07:15:23;13.48;;;2.30;;
24147;SDS011;12309;51.450;-2.624;2023-06-26T07:17:49;10.40;;;1.92;;
24147;SDS011;12309;51.450;-2.624;2023-06-26T07:20:15;7.00;;;1.75;;
24147;SDS011;12309;51.450;-2.624;2023-06-26T07:22:41;14.23;;;1.98;;
24147;SDS011;12309;51.450;-2.624;2023-06-26T07:25:07;14.25;;;2.03;;
24147;SDS011;12309;51.450;-2.624;2023-06-26T07:27:34;13.57;;;2.08;;
24147;SDS011;12309;51.450;-2.624;2023-06-26T07:30:00;16.60;;;1.70;;
24147;SDS011;12309;51.450;-2.624;2023-06-26T07:32:26;16.80;;;2.10;;
24147;SDS011;12309;51.450;-2.624;2023-06-26T07:34:52;13.88;;;2.22;;
24147;SDS011;12309;51.450;-2.624;2023-06-26T07:37:17;6.82;;;2.08;;
24147;SDS011;12309;51.450;-2.624;2023-06-26T07:39:43;10.68;;;1.90;;
24147;SDS011;12309;51.450;-2.624;2023-06-26T07:42:08;14.55;;;2.10;;
24147;SDS011;12309;51.450;-2.624;2023-06-26T07:44:34;8.13;;;2.45;;
24147;SDS011;12309;51.450;-2.624;2023-06-26T07:47:00;13.15;;;2.42;;
24147;SDS011;12309;51.450;-2.624;2023-06-26T07:49:25;12.15;;;2.17;;
24147;SDS011;12309;51.450;-2.624;2023-06-26T07:51:51;15.90;;;2.17;;
24147;SDS011;12309;51.450;-2.624;2023-06-26T07:54:17;6.65;;;1.83;;
24147;SDS011;12309;51.450;-2.624;2023-06-26T07:56:52;13.45;;;1.75;;
24147;SDS011;12309;51.450;-2.624;2023-06-26T07:59:21;16.60;;;2.00;;
24147;SDS011;12309;51.450;-2.624;2023-06-26T08:01:48;11.98;;;2.25;;
24147;SDS011;12309;51.450;-2.624;2023-06-26T08:04:18;13.23;;;1.90;;
24147;SDS011;12309;51.450;-2.624;2023-06-26T08:06:45;9.68;;;1.85;;
24147;SDS011;12309;51.450;-2.624;2023-06-26T08:09:13;9.48;;;1.80;;
24147;SDS011;12309;51.450;-2.624;2023-06-26T08:11:39;12.30;;;2.03;;
24147;SDS011;12309;51.450;-2.624;2023-06-26T08:14:04;10.18;;;1.90;;
24147;SDS011;12309;51.450;-2.624;2023-06-26T08:16:30;8.57;;;1.95;;
24147;SDS011;12309;51.450;-2.624;2023-06-26T08:18:56;12.65;;;2.60;;
24147;SDS011;12309;51.450;-2.624;2023-06-26T08:21:21;10.00;;;2.10;;
24147;SDS011;12309;51.450;-2.624;2023-06-26T08:23:47;14.75;;;2.42;;
24147;SDS011;12309;51.450;-2.624;2023-06-26T08:26:13;12.43;;;2.65;;
24147;SDS011;12309;51.450;-2.624;2023-06-26T08:28:39;10.85;;;2.15;;
24147;SDS011;12309;51.450;-2.624;2023-06-26T08:31:05;11.00;;;2.45;;
24147;SDS011;12309;51.450;-2.624;2023-06-26T08:33:30;12.35;;;2.83;;
24147;SDS011;12309;51.450;-2.624;2023-06-26T08:35:56;13.02;;;2.67;;
24147;SDS011;12309;51.450;-2.624;2023-06-26T08:38:21;13.90;;;2.63;;
24147;SDS011;12309;51.450;-2.624;2023-06-26T08:40:47;13.25;;;2.35;;
24147;SDS011;12309;51.450;-2.624;2023-06-26T08:43:13;14.35;;;2.47;;
24147;SDS011;12309;51.450;-2.624;2023-06-26T08:45:39;13.30;;;2.53;;
24147;SDS011;12309;51.450;-2.624;2023-06-26T08:48:07;15.00;;;2.58;;
24147;SDS011;12309;51.450;-2.624;2023-06-26T08:50:34;11.18;;;2.50;;
24147;SDS011;12309;51.450;-2.624;2023-06-26T08:53:11;13.85;;;2.00;;
24147;SDS011;12309;51.450;-2.624;2023-06-26T08:55:46;15.85;;;2.28;;
24147;SDS011;12309;51.450;-2.624;2023-06-26T08:58:17;13.65;;;2.25;;
24147;SDS011;12309;51.450;-2.624;2023-06-26T09:00:42;14.02;;;1.90;;
24147;SDS011;12309;51.450;-2.624;2023-06-26T09:03:08;43.55;;;4.15;;
24147;SDS011;12309;51.450;-2.624;2023-06-26T09:05:35;8.75;;;2.00;;
24147;SDS011;12309;51.450;-2.624;2023-06-26T09:08:01;15.05;;;2.70;;
24147;SDS011;12309;51.450;-2.624;2023-06-26T09:10:27;14.68;;;1.85;;
24147;SDS011;12309;51.450;-2.624;2023-06-26T09:12:55;18.23;;;2.85;;
24147;SDS011;12309;51.450;-2.624;2023-06-26T09:15:22;14.02;;;2.40;;
24147;SDS011;12309;51.450;-2.624;2023-06-26T09:17:47;8.32;;;1.70;;
24147;SDS011;12309;51.450;-2.624;2023-06-26T09:20:13;9.23;;;1.48;;
24147;SDS011;12309;51.450;-2.624;2023-06-26T09:22:41;12.77;;;1.50;;
24147;SDS011;12309;51.450;-2.624;2023-06-26T09:25:08;8.60;;;1.45;;
24147;SDS011;12309;51.450;-2.624;2023-06-26T09:27:35;8.20;;;1.27;;
24147;SDS011;12309;51.450;-2.624;2023-06-26T09:30:02;12.27;;;1.60;;
24147;SDS011;12309;51.450;-2.624;2023-06-26T09:32:28;14.98;;;1.60;;
24147;SDS011;12309;51.450;-2.624;2023-06-26T09:34:54;13.88;;;1.88;;
24147;SDS011;12309;51.450;-2.624;2023-06-26T09:37:21;7.15;;;1.08;;
24147;SDS011;12309;51.450;-2.624;2023-06-26T09:39:47;5.32;;;1.05;;
24147;SDS011;12309;51.450;-2.624;2023-06-26T09:42:13;7.47;;;1.30;;
24147;SDS011;12309;51.450;-2.624;2023-06-26T09:44:46;8.85;;;1.77;;
24147;SDS011;12309;51.450;-2.624;2023-06-26T09:47:12;14.32;;;1.70;;
24147;SDS011;12309;51.450;-2.624;2023-06-26T09:49:41;6.85;;;1.50;;
24147;SDS011;12309;51.450;-2.624;2023-06-26T09:52:08;10.38;;;1.77;;
24147;SDS011;12309;51.450;-2.624;2023-06-26T09:54:34;9.93;;;1.42;;
24147;SDS011;12309;51.450;-2.624;2023-06-26T09:57:07;16.42;;;2.70;;
24147;SDS011;12309;51.450;-2.624;2023-06-26T09:59:33;15.25;;;2.03;;
24147;SDS011;12309;51.450;-2.624;2023-06-26T10:02:00;15.95;;;2.33;;
24147;SDS011;12309;51.450;-2.624;2023-06-26T10:04:26;6.05;;;1.35;;
24147;SDS011;12309;51.450;-2.624;2023-06-26T10:06:51;25.85;;;2.88;;
24147;SDS011;12309;51.450;-2.624;2023-06-26T10:09:20;8.35;;;1.45;;
24147;SDS011;12309;51.450;-2.624;2023-06-26T10:11:58;8.48;;;1.13;;
24147;SDS011;12309;51.450;-2.624;2023-06-26T10:14:35;12.05;;;1.70;;
24147;SDS011;12309;51.450;-2.624;2023-06-26T10:17:03;11.23;;;1.77;;
24147;SDS011;12309;51.450;-2.624;2023-06-26T10:19:32;8.95;;;1.48;;
24147;SDS011;12309;51.450;-2.624;2023-06-26T10:22:00;6.82;;;1.58;;
24147;SDS011;12309;51.450;-2.624;2023-06-26T10:24:28;5.40;;;1.13;;
24147;SDS011;12309;51.450;-2.624;2023-06-26T10:27:07;7.90;;;1.13;;
24147;SDS011;12309;51.450;-2.624;2023-06-26T10:29:39;18.77;;;1.60;;
24147;SDS011;12309;51.450;-2.624;2023-06-26T10:32:06;7.22;;;1.45;;
24147;SDS011;12309;51.450;-2.624;2023-06-26T10:34:33;9.40;;;1.75;;
24147;SDS011;12309;51.450;-2.624;2023-06-26T10:36:59;10.85;;;1.63;;
24147;SDS011;12309;51.450;-2.624;2023-06-26T10:39:44;7.22;;;1.50;;
24147;SDS011;12309;51.450;-2.624;2023-06-26T10:42:15;10.32;;;1.42;;
24147;SDS011;12309;51.450;-2.624;2023-06-26T10:44:42;15.32;;;1.77;;
24147;SDS011;12309;51.450;-2.624;2023-06-26T10:47:10;6.25;;;1.10;;
24147;SDS011;12309;51.450;-2.624;2023-06-26T10:49:37;9.90;;;1.55;;
24147;SDS011;12309;51.450;-2.624;2023-06-26T10:52:07;5.88;;;1.40;;
24147;SDS011;12309;51.450;-2.624;2023-06-26T10:54:33;7.20;;;1.40;;
24147;SDS011;12309;51.450;-2.624;2023-06-26T10:57:00;5.90;;;1.15;;
24147;SDS011;12309;51.450;-2.624;2023-06-26T10:59:27;10.35;;;1.65;;
24147;SDS011;12309;51.450;-2.624;2023-06-26T11:02:01;5.85;;;1.30;;
24147;SDS011;12309;51.450;-2.624;2023-06-26T11:04:39;9.13;;;1.08;;
24147;SDS011;12309;51.450;-2.624;2023-06-26T11:09:57;9.20;;;1.10;;
24147;SDS011;12309;51.450;-2.624;2023-06-26T11:15:11;4.85;;;1.05;;
24147;SDS011;12309;51.450;-2.624;2023-06-26T11:17:38;7.57;;;1.45;;
24147;SDS011;12309;51.450;-2.624;2023-06-26T11:20:05;8.63;;;1.35;;
24147;SDS011;12309;51.450;-2.624;2023-06-26T11:22:36;6.50;;;1.20;;
24147;SDS011;12309;51.450;-2.624;2023-06-26T11:25:04;5.35;;;1.05;;
24147;SDS011;12309;51.450;-2.624;2023-06-26T11:27:31;9.35;;;1.50;;
24147;SDS011;12309;51.450;-2.624;2023-06-26T11:30:03;5.45;;;1.25;;
24147;SDS011;12309;51.450;-2.624;2023-06-26T11:32:30;15.10;;;1.42;;
24147;SDS011;12309;51.450;-2.624;2023-06-26T11:34:57;4.93;;;1.50;;
24147;SDS011;12309;51.450;-2.624;2023-06-26T11:37:23;8.45;;;1.40;;
24147;SDS011;12309;51.450;-2.624;2023-06-26T11:39:50;3.95;;;1.25;;
24147;SDS011;12309;51.450;-2.624;2023-06-26T11:42:16;7.88;;;1.50;;
24147;SDS011;12309;51.450;-2.624;2023-06-26T11:44:45;5.90;;;1.48;;
24147;SDS011;12309;51.450;-2.624;2023-06-26T11:47:18;7.70;;;1.20;;
24147;SDS011;12309;51.450;-2.624;2023-06-26T11:49:45;5.45;;;1.30;;
24147;SDS011;12309;51.450;-2.624;2023-06-26T11:52:12;6.32;;;1.25;;
24147;SDS011;12309;51.450;-2.624;2023-06-26T11:54:38;8.68;;;1.10;;
24147;SDS011;12309;51.450;-2.624;2023-06-26T11:57:04;12.10;;;1.98;;
24147;SDS011;12309;51.450;-2.624;2023-06-26T11:59:36;8.23;;;1.27;;
24147;SDS011;12309;51.450;-2.624;2023-06-26T12:02:05;6.65;;;1.50;;
24147;SDS011;12309;51.450;-2.624;2023-06-26T12:04:35;8.25;;;1.48;;
24147;SDS011;12309;51.450;-2.624;2023-06-26T12:07:04;10.48;;;1.20;;
24147;SDS011;12309;51.450;-2.624;2023-06-26T12:09:33;8.40;;;1.42;;
24147;SDS011;12309;51.450;-2.624;2023-06-26T12:11:59;6.38;;;1.17;;
24147;SDS011;12309;51.450;-2.624;2023-06-26T12:14:26;7.82;;;1.40;;
24147;SDS011;12309;51.450;-2.624;2023-06-26T12:16:55;8.77;;;1.92;;
24147;SDS011;12309;51.450;-2.624;2023-06-26T12:19:24;10.45;;;1.67;;
24147;SDS011;12309;51.450;-2.624;2023-06-26T12:21:53;11.90;;;1.40;;
24147;SDS011;12309;51.450;-2.624;2023-06-26T12:24:21;8.20;;;1.75;;
24147;SDS011;12309;51.450;-2.624;2023-06-26T12:26:51;8.50;;;1.48;;
24147;SDS011;12309;51.450;-2.624;2023-06-26T12:29:20;13.30;;;1.73;;
24147;SDS011;12309;51.450;-2.624;2023-06-26T12:31:52;6.28;;;1.70;;
24147;SDS011;12309;51.450;-2.624;2023-06-26T12:34:20;6.95;;;1.83;;
24147;SDS011;12309;51.450;-2.624;2023-06-26T12:36:52;9.88;;;1.67;;
24147;SDS011;12309;51.450;-2.624;2023-06-26T12:39:19;11.00;;;1.50;;
24147;SDS011;12309;51.450;-2.624;2023-06-26T12:41:53;5.95;;;1.50;;
24147;SDS011;12309;51.450;-2.624;2023-06-26T12:44:21;10.15;;;2.35;;
24147;SDS011;12309;51.450;-2.624;2023-06-26T12:46:47;7.22;;;1.50;;
24147;SDS011;12309;51.450;-2.624;2023-06-26T12:49:14;13.10;;;1.98;;
24147;SDS011;12309;51.450;-2.624;2023-06-26T12:51:40;10.25;;;1.63;;
24147;SDS011;12309;51.450;-2.624;2023-06-26T12:54:07;7.20;;;1.75;;
24147;SDS011;12309;51.450;-2.624;2023-06-26T12:56:34;11.27;;;1.95;;
24147;SDS011;12309;51.450;-2.624;2023-06-26T12:58:59;12.60;;;1.73;;
24147;SDS011;12309;51.450;-2.624;2023-06-26T13:01:26;11.07;;;1.70;;
24147;SDS011;12309;51.450;-2.624;2023-06-26T13:03:53;7.43;;;1.60;;
24147;SDS011;12309;51.450;-2.624;2023-06-26T13:06:19;7.30;;;1.85;;
24147;SDS011;12309;51.450;-2.624;2023-06-26T13:08:45;7.47;;;1.42;;
24147;SDS011;12309;51.450;-2.624;2023-06-26T13:11:11;7.07;;;1.90;;
24147;SDS011;12309;51.450;-2.624;2023-06-26T13:13:36;14.93;;;2.10;;
24147;SDS011;12309;51.450;-2.624;2023-06-26T13:16:02;16.38;;;1.63;;
24147;SDS011;12309;51.450;-2.624;2023-06-26T13:18:28;11.63;;;1.40;;
24147;SDS011;12309;51.450;-2.624;2023-06-26T13:20:54;13.88;;;1.55;;
24147;SDS011;12309;51.450;-2.624;2023-06-26T13:23:19;13.30;;;2.03;;
24147;SDS011;12309;51.450;-2.624;2023-06-26T13:25:45;9.35;;;1.35;;
24147;SDS011;12309;51.450;-2.624;2023-06-26T13:28:11;12.32;;;1.48;;
24147;SDS011;12309;51.450;-2.624;2023-06-26T13:30:36;10.25;;;1.33;;
24147;SDS011;12309;51.450;-2.624;2023-06-26T13:33:02;4.68;;;1.17;;
24147;SDS011;12309;51.450;-2.624;2023-06-26T13:35:28;7.18;;;1.23;;
24147;SDS011;12309;51.450;-2.624;2023-06-26T13:37:53;7.72;;;1.67;;
24147;SDS011;12309;51.450;-2.624;2023-06-26T13:40:19;8.48;;;1.55;;
24147;SDS011;12309;51.450;-2.624;2023-06-26T13:42:44;9.43;;;1.83;;
24147;SDS011;12309;51.450;-2.624;2023-06-26T13:45:10;9.75;;;1.55;;
24147;SDS011;12309;51.450;-2.624;2023-06-26T13:47:36;9.18;;;1.50;;
24147;SDS011;12309;51.450;-2.624;2023-06-26T13:50:06;12.40;;;1.88;;
24147;SDS011;12309;51.450;-2.624;2023-06-26T13:52:35;6.70;;;1.48;;
24147;SDS011;12309;51.450;-2.624;2023-06-26T13:55:01;6.05;;;1.35;;
24147;SDS011;12309;51.450;-2.624;2023-06-26T13:57:29;7.05;;;1.63;;
24147;SDS011;12309;51.450;-2.624;2023-06-26T13:59:55;10.23;;;1.50;;
24147;SDS011;12309;51.450;-2.624;2023-06-26T14:02:21;14.48;;;1.55;;
24147;SDS011;12309;51.450;-2.624;2023-06-26T14:04:47;11.82;;;1.63;;
24147;SDS011;12309;51.450;-2.624;2023-06-26T14:07:13;5.63;;;1.38;;
24147;SDS011;12309;51.450;-2.624;2023-06-26T14:09:39;5.43;;;1.48;;
24147;SDS011;12309;51.450;-2.624;2023-06-26T14:12:05;9.98;;;1.55;;
24147;SDS011;12309;51.450;-2.624;2023-06-26T14:14:32;10.45;;;1.35;;
24147;SDS011;12309;51.450;-2.624;2023-06-26T14:16:57;6.57;;;1.35;;
24147;SDS011;12309;51.450;-2.624;2023-06-26T14:19:24;7.35;;;1.50;;
24147;SDS011;12309;51.450;-2.624;2023-06-26T14:21:51;6.43;;;1.35;;
24147;SDS011;12309;51.450;-2.624;2023-06-26T14:24:16;9.30;;;1.33;;
24147;SDS011;12309;51.450;-2.624;2023-06-26T14:26:42;9.00;;;1.42;;
24147;SDS011;12309;51.450;-2.624;2023-06-26T14:29:08;9.10;;;1.08;;
24147;SDS011;12309;51.450;-2.624;2023-06-26T14:31:33;6.88;;;1.38;;
24147;SDS011;12309;51.450;-2.624;2023-06-26T14:33:59;8.20;;;1.35;;
24147;SDS011;12309;51.450;-2.624;2023-06-26T14:36:25;8.05;;;1.38;;
24147;SDS011;12309;51.450;-2.624;2023-06-26T14:38:52;5.32;;;1.75;;